sensor_id;sensor_type;location;lat;lon;timestamp;P1;durP1;ratioP1;P2;durP2;ratioP2
359;SDS011;168;48.872;9.226;2023-11-18T00:02:01;10.27;;;8.43;;
359;SDS011;168;48.872;9.226;2023-11-18T00:04:29;8.50;;;7.50;;
359;SDS011;168;48.872;9.226;2023-11-18T00:06:56;9.40;;;8.50;;
359;SDS011;168;48.872;9.226;2023-11-18T00:09:25;9.83;;;8.80;;
359;SDS011;168;48.872;9.226;2023-11-18T00:11:51;8.77;;;7.87;;
359;SDS011;168;48.872;9.226;2023-11-18T00:14:19;9.90;;;8.90;;
359;SDS011;168;48.872;9.226;2023-11-18T00:16:47;9.13;;;8.23;;
359;SDS011;168;48.872;9.226;2023-11-18T00:19:16;9.63;;;8.53;;
359;SDS011;168;48.872;9.226;2023-11-18T00:21:44;10.20;;;9.10;;
359;SDS011;168;48.872;9.226;2023-11-18T00:24:11;9.70;;;8.80;;
359;SDS011;168;48.872;9.226;2023-11-18T00:26:40;9.70;;;8.77;;
359;SDS011;168;48.872;9.226;2023-11-18T00:29:07;10.70;;;9.40;;
359;SDS011;168;48.872;9.226;2023-11-18T00:31:35;9.53;;;8.53;;
359;SDS011;168;48.872;9.226;2023-11-18T00:34:02;8.57;;;7.67;;
359;SDS011;168;48.872;9.226;2023-11-18T00:36:31;9.27;;;8.13;;
359;SDS011;168;48.872;9.226;2023-11-18T00:38:58;9.60;;;8.60;;
359;SDS011;168;48.872;9.226;2023-11-18T00:41:26;10.47;;;8.70;;
359;SDS011;168;48.872;9.226;2023-11-18T00:43:53;9.60;;;8.60;;
359;SDS011;168;48.872;9.226;2023-11-18T00:46:22;9.07;;;8.10;;
359;SDS011;168;48.872;9.226;2023-11-18T00:48:49;9.37;;;8.37;;
359;SDS011;168;48.872;9.226;2023-11-18T00:51:17;9.57;;;8.63;;
359;SDS011;168;48.872;9.226;2023-11-18T00:53:45;11.27;;;8.13;;
359;SDS011;168;48.872;9.226;2023-11-18T00:56:15;8.00;;;7.20;;
359;SDS011;168;48.872;9.226;2023-11-18T00:58:43;8.10;;;7.30;;
359;SDS011;168;48.872;9.226;2023-11-18T01:01:11;7.63;;;6.73;;
359;SDS011;168;48.872;9.226;2023-11-18T01:03:38;7.60;;;6.90;;
359;SDS011;168;48.872;9.226;2023-11-18T01:06:05;6.00;;;5.40;;
359;SDS011;168;48.872;9.226;2023-11-18T01:08:33;7.13;;;6.43;;
359;SDS011;168;48.872;9.226;2023-11-18T01:11:02;7.60;;;6.80;;
359;SDS011;168;48.872;9.226;2023-11-18T01:13:30;7.63;;;6.83;;
359;SDS011;168;48.872;9.226;2023-11-18T01:15:58;6.70;;;6.10;;
359;SDS011;168;48.872;9.226;2023-11-18T01:18:25;6.43;;;5.73;;
359;SDS011;168;48.872;9.226;2023-11-18T01:20:53;5.93;;;5.33;;
359;SDS011;168;48.872;9.226;2023-11-18T01:23:20;6.30;;;5.40;;
359;SDS011;168;48.872;9.226;2023-11-18T01:25:47;6.03;;;5.43;;
359;SDS011;168;48.872;9.226;2023-11-18T01:28:18;5.97;;;5.37;;
359;SDS011;168;48.872;9.226;2023-11-18T01:30:45;6.90;;;6.20;;
359;SDS011;168;48.872;9.226;2023-11-18T01:33:12;6.20;;;5.50;;
359;SDS011;168;48.872;9.226;2023-11-18T01:35:40;6.03;;;5.43;;
359;SDS011;168;48.872;9.226;2023-11-18T01:38:09;6.60;;;5.40;;
359;SDS011;168;48.872;9.226;2023-11-18T01:40:37;6.40;;;5.80;;
359;SDS011;168;48.872;9.226;2023-11-18T01:43:04;6.37;;;5.20;;
359;SDS011;168;48.872;9.226;2023-11-18T01:45:39;6.07;;;4.93;;
359;SDS011;168;48.872;9.226;2023-11-18T01:48:07;5.83;;;5.30;;
359;SDS011;168;48.872;9.226;2023-11-18T01:50:36;5.80;;;5.03;;
359;SDS011;168;48.872;9.226;2023-11-18T01:53:05;5.50;;;4.90;;
359;SDS011;168;48.872;9.226;2023-11-18T01:55:35;5.70;;;5.07;;
359;SDS011;168;48.872;9.226;2023-11-18T01:58:04;6.30;;;5.57;;
359;SDS011;168;48.872;9.226;2023-11-18T02:00:35;6.60;;;5.30;;
359;SDS011;168;48.872;9.226;2023-11-18T02:03:05;5.93;;;5.37;;
359;SDS011;168;48.872;9.226;2023-11-18T02:05:33;5.97;;;5.33;;
359;SDS011;168;48.872;9.226;2023-11-18T02:08:00;6.70;;;5.77;;
359;SDS011;168;48.872;9.226;2023-11-18T02:10:29;6.93;;;6.23;;
359;SDS011;168;48.872;9.226;2023-11-18T02:13:01;6.73;;;5.13;;
359;SDS011;168;48.872;9.226;2023-11-18T02:15:34;6.90;;;6.20;;
359;SDS011;168;48.872;9.226;2023-11-18T02:18:03;6.40;;;5.80;;
359;SDS011;168;48.872;9.226;2023-11-18T02:20:36;6.20;;;5.60;;
359;SDS011;168;48.872;9.226;2023-11-18T02:23:05;6.17;;;5.50;;
359;SDS011;168;48.872;9.226;2023-11-18T02:25:34;6.70;;;6.10;;
359;SDS011;168;48.872;9.226;2023-11-18T02:28:07;7.27;;;6.20;;
359;SDS011;168;48.872;9.226;2023-11-18T02:30:35;6.10;;;5.50;;
359;SDS011;168;48.872;9.226;2023-11-18T02:33:04;7.33;;;6.60;;
359;SDS011;168;48.872;9.226;2023-11-18T02:35:41;6.87;;;6.17;;
359;SDS011;168;48.872;9.226;2023-11-18T02:38:15;7.83;;;6.43;;
359;SDS011;168;48.872;9.226;2023-11-18T02:40:50;6.83;;;6.17;;
359;SDS011;168;48.872;9.226;2023-11-18T02:43:24;6.83;;;6.13;;
359;SDS011;168;48.872;9.226;2023-11-18T02:45:54;6.57;;;5.90;;
359;SDS011;168;48.872;9.226;2023-11-18T02:48:23;7.33;;;6.20;;
359;SDS011;168;48.872;9.226;2023-11-18T02:50:54;7.67;;;6.53;;
359;SDS011;168;48.872;9.226;2023-11-18T02:53:21;6.57;;;5.97;;
359;SDS011;168;48.872;9.226;2023-11-18T02:55:50;7.70;;;6.90;;
359;SDS011;168;48.872;9.226;2023-11-18T02:58:18;7.40;;;6.60;;
359;SDS011;168;48.872;9.226;2023-11-18T03:00:47;6.60;;;5.97;;
359;SDS011;168;48.872;9.226;2023-11-18T03:03:14;6.93;;;6.23;;
359;SDS011;168;48.872;9.226;2023-11-18T03:05:42;8.87;;;6.10;;
359;SDS011;168;48.872;9.226;2023-11-18T03:08:11;7.37;;;6.70;;
359;SDS011;168;48.872;9.226;2023-11-18T03:10:39;6.83;;;6.00;;
359;SDS011;168;48.872;9.226;2023-11-18T03:13:09;6.53;;;5.93;;
359;SDS011;168;48.872;9.226;2023-11-18T03:15:37;7.20;;;6.23;;
359;SDS011;168;48.872;9.226;2023-11-18T03:18:07;6.50;;;5.90;;
359;SDS011;168;48.872;9.226;2023-11-18T03:20:34;9.40;;;6.60;;
359;SDS011;168;48.872;9.226;2023-11-18T03:23:02;7.10;;;6.40;;
359;SDS011;168;48.872;9.226;2023-11-18T03:25:29;6.93;;;6.10;;
359;SDS011;168;48.872;9.226;2023-11-18T03:27:56;7.40;;;6.70;;
359;SDS011;168;48.872;9.226;2023-11-18T03:30:24;7.07;;;6.37;;
359;SDS011;168;48.872;9.226;2023-11-18T03:32:52;7.00;;;6.30;;
359;SDS011;168;48.872;9.226;2023-11-18T03:35:20;6.03;;;5.43;;
359;SDS011;168;48.872;9.226;2023-11-18T03:37:49;6.40;;;5.80;;
359;SDS011;168;48.872;9.226;2023-11-18T03:40:17;6.70;;;6.10;;
359;SDS011;168;48.872;9.226;2023-11-18T03:42:44;6.87;;;6.17;;
359;SDS011;168;48.872;9.226;2023-11-18T03:45:12;6.03;;;5.50;;
359;SDS011;168;48.872;9.226;2023-11-18T03:47:43;6.83;;;6.20;;
359;SDS011;168;48.872;9.226;2023-11-18T03:50:10;7.97;;;7.20;;
359;SDS011;168;48.872;9.226;2023-11-18T03:52:40;7.60;;;6.80;;
359;SDS011;168;48.872;9.226;2023-11-18T03:55:07;7.60;;;6.80;;
359;SDS011;168;48.872;9.226;2023-11-18T03:57:35;8.47;;;6.50;;
359;SDS011;168;48.872;9.226;2023-11-18T04:00:03;7.60;;;6.90;;
359;SDS011;168;48.872;9.226;2023-11-18T04:02:32;6.70;;;6.10;;
359;SDS011;168;48.872;9.226;2023-11-18T04:05:01;7.33;;;6.53;;
359;SDS011;168;48.872;9.226;2023-11-18T04:07:29;7.00;;;6.10;;
359;SDS011;168;48.872;9.226;2023-11-18T04:09:58;6.80;;;6.10;;
359;SDS011;168;48.872;9.226;2023-11-18T04:12:25;6.97;;;6.27;;
359;SDS011;168;48.872;9.226;2023-11-18T04:14:53;7.00;;;5.90;;
359;SDS011;168;48.872;9.226;2023-11-18T04:17:20;5.43;;;4.93;;
359;SDS011;168;48.872;9.226;2023-11-18T04:19:48;4.87;;;4.47;;
359;SDS011;168;48.872;9.226;2023-11-18T04:22:15;5.70;;;5.10;;
359;SDS011;168;48.872;9.226;2023-11-18T04:24:44;8.80;;;5.13;;
359;SDS011;168;48.872;9.226;2023-11-18T04:27:13;5.67;;;5.07;;
359;SDS011;168;48.872;9.226;2023-11-18T04:29:40;5.60;;;4.63;;
359;SDS011;168;48.872;9.226;2023-11-18T04:32:08;5.40;;;4.90;;
359;SDS011;168;48.872;9.226;2023-11-18T04:34:36;6.33;;;4.93;;
359;SDS011;168;48.872;9.226;2023-11-18T04:37:03;5.33;;;4.83;;
359;SDS011;168;48.872;9.226;2023-11-18T04:39:31;6.40;;;5.03;;
359;SDS011;168;48.872;9.226;2023-11-18T04:41:59;5.43;;;4.93;;
359;SDS011;168;48.872;9.226;2023-11-18T04:44:28;5.47;;;4.67;;
359;SDS011;168;48.872;9.226;2023-11-18T04:46:57;5.90;;;5.30;;
359;SDS011;168;48.872;9.226;2023-11-18T04:49:25;5.87;;;5.03;;
359;SDS011;168;48.872;9.226;2023-11-18T04:51:52;5.27;;;4.77;;
359;SDS011;168;48.872;9.226;2023-11-18T04:54:20;5.43;;;4.93;;
359;SDS011;168;48.872;9.226;2023-11-18T04:56:47;5.60;;;5.03;;
359;SDS011;168;48.872;9.226;2023-11-18T04:59:14;5.70;;;5.10;;
359;SDS011;168;48.872;9.226;2023-11-18T05:01:44;5.90;;;5.30;;
359;SDS011;168;48.872;9.226;2023-11-18T05:04:12;5.50;;;5.00;;
359;SDS011;168;48.872;9.226;2023-11-18T05:06:39;5.77;;;5.07;;
359;SDS011;168;48.872;9.226;2023-11-18T05:09:07;5.57;;;5.00;;
359;SDS011;168;48.872;9.226;2023-11-18T05:11:34;6.13;;;4.80;;
359;SDS011;168;48.872;9.226;2023-11-18T05:14:05;6.13;;;5.50;;
359;SDS011;168;48.872;9.226;2023-11-18T05:16:34;5.67;;;5.07;;
359;SDS011;168;48.872;9.226;2023-11-18T05:25:49;5.47;;;4.87;;
359;SDS011;168;48.872;9.226;2023-11-18T05:31:26;5.73;;;4.80;;
359;SDS011;168;48.872;9.226;2023-11-18T05:50:22;6.73;;;6.03;;
359;SDS011;168;48.872;9.226;2023-11-18T05:52:50;6.90;;;6.20;;
359;SDS011;168;48.872;9.226;2023-11-18T05:55:18;7.70;;;7.00;;
359;SDS011;168;48.872;9.226;2023-11-18T05:57:45;8.23;;;6.73;;
359;SDS011;168;48.872;9.226;2023-11-18T06:00:13;6.20;;;5.60;;
359;SDS011;168;48.872;9.226;2023-11-18T06:02:42;7.27;;;6.57;;
359;SDS011;168;48.872;9.226;2023-11-18T06:05:10;7.67;;;6.90;;
359;SDS011;168;48.872;9.226;2023-11-18T06:07:39;6.80;;;6.10;;
359;SDS011;168;48.872;9.226;2023-11-18T06:10:08;6.73;;;6.13;;
359;SDS011;168;48.872;9.226;2023-11-18T06:12:37;8.77;;;7.00;;
359;SDS011;168;48.872;9.226;2023-11-18T06:15:06;7.93;;;7.13;;
359;SDS011;168;48.872;9.226;2023-11-18T06:17:39;9.40;;;7.90;;
359;SDS011;168;48.872;9.226;2023-11-18T06:20:11;10.47;;;7.00;;
359;SDS011;168;48.872;9.226;2023-11-18T06:22:41;7.33;;;6.60;;
359;SDS011;168;48.872;9.226;2023-11-18T06:25:08;8.00;;;6.73;;
359;SDS011;168;48.872;9.226;2023-11-18T06:27:38;7.70;;;7.00;;
359;SDS011;168;48.872;9.226;2023-11-18T06:30:06;7.40;;;6.60;;
359;SDS011;168;48.872;9.226;2023-11-18T06:32:36;7.13;;;6.43;;
359;SDS011;168;48.872;9.226;2023-11-18T06:35:21;7.07;;;6.07;;
359;SDS011;168;48.872;9.226;2023-11-18T06:37:53;7.73;;;6.93;;
359;SDS011;168;48.872;9.226;2023-11-18T06:40:21;6.67;;;6.03;;
359;SDS011;168;48.872;9.226;2023-11-18T06:42:52;6.27;;;5.67;;
359;SDS011;168;48.872;9.226;2023-11-18T06:45:27;6.43;;;5.80;;
359;SDS011;168;48.872;9.226;2023-11-18T06:47:57;5.70;;;5.20;;
359;SDS011;168;48.872;9.226;2023-11-18T06:50:26;6.57;;;5.77;;
359;SDS011;168;48.872;9.226;2023-11-18T06:52:56;7.17;;;6.07;;
359;SDS011;168;48.872;9.226;2023-11-18T06:58:25;7.87;;;6.50;;
359;SDS011;168;48.872;9.226;2023-11-18T07:00:53;7.40;;;6.40;;
359;SDS011;168;48.872;9.226;2023-11-18T07:03:21;6.53;;;5.80;;
359;SDS011;168;48.872;9.226;2023-11-18T07:05:48;6.40;;;5.80;;
359;SDS011;168;48.872;9.226;2023-11-18T07:08:17;6.90;;;6.20;;
359;SDS011;168;48.872;9.226;2023-11-18T07:10:45;7.70;;;6.33;;
359;SDS011;168;48.872;9.226;2023-11-18T07:13:15;10.33;;;7.60;;
359;SDS011;168;48.872;9.226;2023-11-18T07:15:43;9.93;;;6.80;;
359;SDS011;168;48.872;9.226;2023-11-18T07:18:10;9.43;;;7.40;;
359;SDS011;168;48.872;9.226;2023-11-18T07:20:47;7.80;;;7.00;;
359;SDS011;168;48.872;9.226;2023-11-18T07:23:18;9.80;;;7.40;;
359;SDS011;168;48.872;9.226;2023-11-18T07:25:46;7.53;;;6.80;;
359;SDS011;168;48.872;9.226;2023-11-18T07:28:16;9.17;;;7.57;;
359;SDS011;168;48.872;9.226;2023-11-18T07:30:43;11.10;;;8.67;;
359;SDS011;168;48.872;9.226;2023-11-18T07:33:13;7.73;;;7.00;;
359;SDS011;168;48.872;9.226;2023-11-18T07:35:40;7.50;;;6.80;;
359;SDS011;168;48.872;9.226;2023-11-18T07:38:08;8.33;;;7.53;;
359;SDS011;168;48.872;9.226;2023-11-18T07:40:37;8.07;;;7.27;;
359;SDS011;168;48.872;9.226;2023-11-18T07:46:30;7.37;;;6.67;;
359;SDS011;168;48.872;9.226;2023-11-18T07:48:57;8.57;;;7.60;;
359;SDS011;168;48.872;9.226;2023-11-18T07:51:26;6.40;;;5.80;;
359;SDS011;168;48.872;9.226;2023-11-18T07:53:54;7.83;;;7.03;;
359;SDS011;168;48.872;9.226;2023-11-18T07:56:23;8.53;;;7.63;;
359;SDS011;168;48.872;9.226;2023-11-18T07:58:52;7.77;;;6.97;;
359;SDS011;168;48.872;9.226;2023-11-18T08:01:20;7.60;;;6.30;;
359;SDS011;168;48.872;9.226;2023-11-18T08:03:47;6.70;;;6.10;;
359;SDS011;168;48.872;9.226;2023-11-18T08:06:16;6.80;;;6.20;;
359;SDS011;168;48.872;9.226;2023-11-18T08:08:45;6.70;;;6.00;;
359;SDS011;168;48.872;9.226;2023-11-18T08:11:13;6.63;;;5.93;;
359;SDS011;168;48.872;9.226;2023-11-18T08:13:42;7.77;;;6.47;;
359;SDS011;168;48.872;9.226;2023-11-18T08:16:09;9.53;;;6.60;;
359;SDS011;168;48.872;9.226;2023-11-18T08:18:38;6.90;;;5.97;;
359;SDS011;168;48.872;9.226;2023-11-18T08:21:06;7.10;;;6.27;;
359;SDS011;168;48.872;9.226;2023-11-18T08:23:33;6.87;;;6.20;;
359;SDS011;168;48.872;9.226;2023-11-18T08:26:01;6.40;;;5.80;;
359;SDS011;168;48.872;9.226;2023-11-18T08:28:29;7.23;;;6.13;;
359;SDS011;168;48.872;9.226;2023-11-18T08:30:58;7.70;;;6.10;;
359;SDS011;168;48.872;9.226;2023-11-18T08:33:26;6.90;;;6.20;;
359;SDS011;168;48.872;9.226;2023-11-18T08:35:54;7.53;;;6.83;;
359;SDS011;168;48.872;9.226;2023-11-18T08:38:22;6.90;;;6.20;;
359;SDS011;168;48.872;9.226;2023-11-18T08:40:49;7.53;;;6.43;;
359;SDS011;168;48.872;9.226;2023-11-18T08:43:17;7.07;;;6.37;;
359;SDS011;168;48.872;9.226;2023-11-18T08:45:46;8.53;;;6.67;;
359;SDS011;168;48.872;9.226;2023-11-18T08:48:17;6.30;;;5.70;;
359;SDS011;168;48.872;9.226;2023-11-18T08:50:44;6.60;;;5.90;;
359;SDS011;168;48.872;9.226;2023-11-18T08:53:12;7.40;;;6.57;;
359;SDS011;168;48.872;9.226;2023-11-18T08:55:44;7.33;;;6.50;;
359;SDS011;168;48.872;9.226;2023-11-18T08:58:16;6.70;;;5.53;;
359;SDS011;168;48.872;9.226;2023-11-18T09:00:45;6.60;;;5.83;;
359;SDS011;168;48.872;9.226;2023-11-18T09:03:17;7.50;;;6.70;;
359;SDS011;168;48.872;9.226;2023-11-18T09:05:53;7.30;;;6.17;;
359;SDS011;168;48.872;9.226;2023-11-18T09:08:25;6.20;;;5.60;;
359;SDS011;168;48.872;9.226;2023-11-18T09:10:55;6.30;;;5.70;;
359;SDS011;168;48.872;9.226;2023-11-18T09:13:24;7.03;;;5.93;;
359;SDS011;168;48.872;9.226;2023-11-18T09:15:54;7.07;;;6.37;;
359;SDS011;168;48.872;9.226;2023-11-18T09:18:24;6.80;;;6.10;;
359;SDS011;168;48.872;9.226;2023-11-18T09:20:53;7.20;;;6.50;;
359;SDS011;168;48.872;9.226;2023-11-18T09:23:22;7.07;;;5.50;;
359;SDS011;168;48.872;9.226;2023-11-18T09:25:51;6.43;;;5.83;;
359;SDS011;168;48.872;9.226;2023-11-18T09:28:20;6.47;;;5.17;;
359;SDS011;168;48.872;9.226;2023-11-18T09:30:50;6.10;;;5.50;;
359;SDS011;168;48.872;9.226;2023-11-18T09:33:20;5.07;;;4.57;;
359;SDS011;168;48.872;9.226;2023-11-18T09:35:56;6.13;;;5.53;;
359;SDS011;168;48.872;9.226;2023-11-18T09:38:25;5.47;;;4.97;;
359;SDS011;168;48.872;9.226;2023-11-18T09:40:57;4.83;;;4.40;;
359;SDS011;168;48.872;9.226;2023-11-18T09:43:28;5.80;;;4.90;;
359;SDS011;168;48.872;9.226;2023-11-18T09:46:02;5.13;;;4.60;;
359;SDS011;168;48.872;9.226;2023-11-18T09:48:39;5.97;;;4.93;;
359;SDS011;168;48.872;9.226;2023-11-18T09:51:19;6.00;;;5.10;;
359;SDS011;168;48.872;9.226;2023-11-18T09:53:50;5.23;;;4.57;;
359;SDS011;168;48.872;9.226;2023-11-18T09:56:21;5.10;;;4.57;;
359;SDS011;168;48.872;9.226;2023-11-18T09:59:05;4.87;;;4.07;;
359;SDS011;168;48.872;9.226;2023-11-18T10:01:41;5.53;;;4.97;;
359;SDS011;168;48.872;9.226;2023-11-18T10:04:12;4.53;;;4.00;;
359;SDS011;168;48.872;9.226;2023-11-18T10:06:45;3.80;;;3.30;;
359;SDS011;168;48.872;9.226;2023-11-18T10:09:14;6.20;;;3.47;;
359;SDS011;168;48.872;9.226;2023-11-18T10:11:53;5.10;;;3.80;;
359;SDS011;168;48.872;9.226;2023-11-18T10:14:26;5.73;;;3.77;;
359;SDS011;168;48.872;9.226;2023-11-18T10:17:10;3.63;;;3.23;;
359;SDS011;168;48.872;9.226;2023-11-18T10:19:49;5.07;;;3.90;;
359;SDS011;168;48.872;9.226;2023-11-18T10:22:26;4.70;;;3.23;;
359;SDS011;168;48.872;9.226;2023-11-18T10:24:55;3.63;;;3.33;;
359;SDS011;168;48.872;9.226;2023-11-18T10:27:23;4.40;;;3.10;;
359;SDS011;168;48.872;9.226;2023-11-18T10:29:54;5.67;;;3.47;;
359;SDS011;168;48.872;9.226;2023-11-18T10:32:23;3.40;;;2.50;;
359;SDS011;168;48.872;9.226;2023-11-18T10:34:53;3.90;;;3.20;;
359;SDS011;168;48.872;9.226;2023-11-18T10:37:22;5.37;;;3.60;;
359;SDS011;168;48.872;9.226;2023-11-18T10:39:51;3.87;;;3.37;;
359;SDS011;168;48.872;9.226;2023-11-18T10:42:18;10.17;;;3.97;;
359;SDS011;168;48.872;9.226;2023-11-18T10:44:55;8.90;;;7.33;;
359;SDS011;168;48.872;9.226;2023-11-18T10:47:24;16.03;;;7.97;;
359;SDS011;168;48.872;9.226;2023-11-18T10:49:52;4.77;;;2.97;;
359;SDS011;168;48.872;9.226;2023-11-18T10:52:21;5.03;;;3.20;;
359;SDS011;168;48.872;9.226;2023-11-18T10:54:53;4.57;;;2.80;;
359;SDS011;168;48.872;9.226;2023-11-18T10:57:21;4.23;;;2.90;;
359;SDS011;168;48.872;9.226;2023-11-18T11:00:07;4.00;;;2.60;;
359;SDS011;168;48.872;9.226;2023-11-18T11:02:40;4.63;;;2.97;;
359;SDS011;168;48.872;9.226;2023-11-18T11:05:27;3.67;;;2.90;;
359;SDS011;168;48.872;9.226;2023-11-18T11:07:57;5.33;;;3.57;;
359;SDS011;168;48.872;9.226;2023-11-18T11:10:27;3.40;;;3.10;;
359;SDS011;168;48.872;9.226;2023-11-18T11:12:55;3.60;;;2.77;;
359;SDS011;168;48.872;9.226;2023-11-18T11:15:29;3.27;;;2.90;;
359;SDS011;168;48.872;9.226;2023-11-18T11:17:58;3.93;;;2.70;;
359;SDS011;168;48.872;9.226;2023-11-18T11:20:34;3.23;;;2.23;;
359;SDS011;168;48.872;9.226;2023-11-18T11:23:10;3.30;;;2.40;;
359;SDS011;168;48.872;9.226;2023-11-18T11:25:50;2.90;;;2.20;;
359;SDS011;168;48.872;9.226;2023-11-18T11:28:25;3.63;;;2.60;;
359;SDS011;168;48.872;9.226;2023-11-18T11:31:10;3.70;;;2.43;;
359;SDS011;168;48.872;9.226;2023-11-18T11:33:54;3.07;;;2.30;;
359;SDS011;168;48.872;9.226;2023-11-18T11:36:41;3.40;;;2.07;;
359;SDS011;168;48.872;9.226;2023-11-18T11:39:14;2.60;;;2.20;;
359;SDS011;168;48.872;9.226;2023-11-18T11:41:45;3.10;;;2.50;;
359;SDS011;168;48.872;9.226;2023-11-18T11:44:13;2.90;;;1.90;;
359;SDS011;168;48.872;9.226;2023-11-18T11:46:42;2.83;;;2.10;;
359;SDS011;168;48.872;9.226;2023-11-18T11:49:19;5.40;;;3.70;;
359;SDS011;168;48.872;9.226;2023-11-18T11:51:47;2.87;;;1.93;;
359;SDS011;168;48.872;9.226;2023-11-18T11:54:20;3.63;;;2.37;;
359;SDS011;168;48.872;9.226;2023-11-18T11:56:56;4.60;;;2.70;;
359;SDS011;168;48.872;9.226;2023-11-18T11:59:35;3.17;;;2.33;;
359;SDS011;168;48.872;9.226;2023-11-18T12:02:21;3.47;;;2.37;;
359;SDS011;168;48.872;9.226;2023-11-18T12:04:53;2.73;;;2.00;;
359;SDS011;168;48.872;9.226;2023-11-18T12:07:24;3.90;;;1.97;;
359;SDS011;168;48.872;9.226;2023-11-18T12:09:55;3.83;;;2.40;;
359;SDS011;168;48.872;9.226;2023-11-18T12:12:25;4.10;;;2.17;;
359;SDS011;168;48.872;9.226;2023-11-18T12:14:53;4.20;;;2.17;;
359;SDS011;168;48.872;9.226;2023-11-18T12:17:23;3.43;;;2.20;;
359;SDS011;168;48.872;9.226;2023-11-18T12:19:54;3.63;;;2.03;;
359;SDS011;168;48.872;9.226;2023-11-18T12:22:24;2.80;;;2.20;;
359;SDS011;168;48.872;9.226;2023-11-18T12:28:00;4.07;;;3.23;;
359;SDS011;168;48.872;9.226;2023-11-18T12:30:44;5.80;;;4.60;;
359;SDS011;168;48.872;9.226;2023-11-18T12:39:53;5.20;;;2.60;;
359;SDS011;168;48.872;9.226;2023-11-18T12:42:58;5.07;;;2.40;;
359;SDS011;168;48.872;9.226;2023-11-18T12:48:42;3.77;;;1.97;;
359;SDS011;168;48.872;9.226;2023-11-18T12:51:12;7.90;;;2.50;;
359;SDS011;168;48.872;9.226;2023-11-18T12:53:46;2.97;;;1.90;;
359;SDS011;168;48.872;9.226;2023-11-18T12:56:16;3.27;;;1.97;;
359;SDS011;168;48.872;9.226;2023-11-18T12:58:46;4.70;;;2.53;;
359;SDS011;168;48.872;9.226;2023-11-18T13:01:14;4.40;;;2.50;;
359;SDS011;168;48.872;9.226;2023-11-18T13:03:41;3.07;;;2.20;;
359;SDS011;168;48.872;9.226;2023-11-18T13:06:09;2.97;;;1.60;;
359;SDS011;168;48.872;9.226;2023-11-18T13:08:37;4.67;;;2.53;;
359;SDS011;168;48.872;9.226;2023-11-18T13:11:05;3.13;;;2.00;;
359;SDS011;168;48.872;9.226;2023-11-18T13:13:38;3.70;;;2.20;;
359;SDS011;168;48.872;9.226;2023-11-18T13:16:07;3.90;;;2.40;;
359;SDS011;168;48.872;9.226;2023-11-18T13:18:41;4.17;;;2.23;;
359;SDS011;168;48.872;9.226;2023-11-18T13:21:13;3.50;;;2.10;;
359;SDS011;168;48.872;9.226;2023-11-18T13:23:40;2.60;;;1.80;;
359;SDS011;168;48.872;9.226;2023-11-18T13:26:08;3.00;;;1.60;;
359;SDS011;168;48.872;9.226;2023-11-18T13:28:37;3.30;;;1.80;;
359;SDS011;168;48.872;9.226;2023-11-18T13:31:07;2.13;;;1.70;;
359;SDS011;168;48.872;9.226;2023-11-18T13:33:36;3.10;;;1.70;;
359;SDS011;168;48.872;9.226;2023-11-18T13:36:05;2.40;;;1.33;;
359;SDS011;168;48.872;9.226;2023-11-18T13:38:35;2.37;;;1.40;;
359;SDS011;168;48.872;9.226;2023-11-18T13:41:03;2.63;;;1.80;;
359;SDS011;168;48.872;9.226;2023-11-18T13:43:43;3.50;;;2.03;;
359;SDS011;168;48.872;9.226;2023-11-18T13:46:14;3.27;;;1.60;;
359;SDS011;168;48.872;9.226;2023-11-18T13:48:46;3.57;;;1.80;;
359;SDS011;168;48.872;9.226;2023-11-18T13:51:14;3.30;;;2.23;;
359;SDS011;168;48.872;9.226;2023-11-18T13:53:45;3.63;;;1.70;;
359;SDS011;168;48.872;9.226;2023-11-18T13:56:12;3.17;;;1.63;;
359;SDS011;168;48.872;9.226;2023-11-18T13:58:42;2.80;;;1.70;;
359;SDS011;168;48.872;9.226;2023-11-18T14:01:11;3.17;;;2.20;;
359;SDS011;168;48.872;9.226;2023-11-18T14:03:41;4.60;;;1.87;;
359;SDS011;168;48.872;9.226;2023-11-18T14:06:14;4.50;;;2.23;;
359;SDS011;168;48.872;9.226;2023-11-18T14:08:55;3.13;;;2.20;;
359;SDS011;168;48.872;9.226;2023-11-18T14:11:56;4.33;;;2.60;;
359;SDS011;168;48.872;9.226;2023-11-18T14:14:57;5.53;;;3.70;;
359;SDS011;168;48.872;9.226;2023-11-18T14:17:33;4.03;;;3.00;;
359;SDS011;168;48.872;9.226;2023-11-18T14:20:16;2.97;;;2.13;;
359;SDS011;168;48.872;9.226;2023-11-18T14:22:47;5.13;;;2.47;;
359;SDS011;168;48.872;9.226;2023-11-18T14:25:16;3.70;;;2.60;;
359;SDS011;168;48.872;9.226;2023-11-18T14:27:44;3.83;;;2.67;;
359;SDS011;168;48.872;9.226;2023-11-18T14:30:15;3.73;;;2.63;;
359;SDS011;168;48.872;9.226;2023-11-18T14:32:43;3.77;;;2.60;;
359;SDS011;168;48.872;9.226;2023-11-18T14:35:17;4.00;;;2.80;;
359;SDS011;168;48.872;9.226;2023-11-18T14:37:50;3.60;;;2.73;;
359;SDS011;168;48.872;9.226;2023-11-18T14:46:46;4.13;;;3.40;;
359;SDS011;168;48.872;9.226;2023-11-18T14:49:13;4.70;;;3.63;;
359;SDS011;168;48.872;9.226;2023-11-18T14:51:42;4.60;;;4.10;;
359;SDS011;168;48.872;9.226;2023-11-18T14:54:09;4.87;;;4.20;;
359;SDS011;168;48.872;9.226;2023-11-18T14:56:37;4.33;;;3.20;;
359;SDS011;168;48.872;9.226;2023-11-18T14:59:04;4.33;;;3.93;;
359;SDS011;168;48.872;9.226;2023-11-18T15:01:33;4.93;;;4.40;;
359;SDS011;168;48.872;9.226;2023-11-18T15:04:01;4.80;;;3.97;;
359;SDS011;168;48.872;9.226;2023-11-18T15:06:31;4.67;;;4.17;;
359;SDS011;168;48.872;9.226;2023-11-18T15:08:59;6.40;;;4.63;;
359;SDS011;168;48.872;9.226;2023-11-18T15:11:29;5.53;;;4.60;;
359;SDS011;168;48.872;9.226;2023-11-18T15:13:59;8.60;;;5.20;;
359;SDS011;168;48.872;9.226;2023-11-18T15:16:26;4.67;;;4.13;;
359;SDS011;168;48.872;9.226;2023-11-18T15:18:54;5.60;;;4.30;;
359;SDS011;168;48.872;9.226;2023-11-18T15:21:22;4.70;;;3.90;;
359;SDS011;168;48.872;9.226;2023-11-18T15:23:49;7.40;;;3.90;;
359;SDS011;168;48.872;9.226;2023-11-18T15:26:18;7.53;;;4.63;;
359;SDS011;168;48.872;9.226;2023-11-18T15:28:45;4.97;;;4.47;;
359;SDS011;168;48.872;9.226;2023-11-18T15:31:13;6.80;;;4.10;;
359;SDS011;168;48.872;9.226;2023-11-18T15:33:41;4.80;;;4.17;;
359;SDS011;168;48.872;9.226;2023-11-18T15:36:11;6.20;;;4.13;;
359;SDS011;168;48.872;9.226;2023-11-18T15:38:38;4.70;;;4.20;;
359;SDS011;168;48.872;9.226;2023-11-18T15:41:08;5.73;;;4.77;;
359;SDS011;168;48.872;9.226;2023-11-18T15:43:38;6.43;;;4.60;;
359;SDS011;168;48.872;9.226;2023-11-18T15:46:06;6.13;;;5.10;;
359;SDS011;168;48.872;9.226;2023-11-18T15:48:36;6.80;;;4.93;;
359;SDS011;168;48.872;9.226;2023-11-18T15:51:04;6.13;;;4.30;;
359;SDS011;168;48.872;9.226;2023-11-18T15:53:31;7.87;;;4.90;;
359;SDS011;168;48.872;9.226;2023-11-18T15:55:59;5.17;;;4.40;;
359;SDS011;168;48.872;9.226;2023-11-18T15:58:26;5.60;;;4.23;;
359;SDS011;168;48.872;9.226;2023-11-18T16:00:56;5.83;;;4.50;;
359;SDS011;168;48.872;9.226;2023-11-18T16:03:24;5.47;;;4.67;;
359;SDS011;168;48.872;9.226;2023-11-18T16:05:53;6.37;;;4.37;;
359;SDS011;168;48.872;9.226;2023-11-18T16:08:20;5.90;;;4.63;;
359;SDS011;168;48.872;9.226;2023-11-18T16:10:48;5.47;;;4.40;;
359;SDS011;168;48.872;9.226;2023-11-18T16:13:15;4.50;;;4.07;;
359;SDS011;168;48.872;9.226;2023-11-18T16:15:42;6.17;;;4.90;;
359;SDS011;168;48.872;9.226;2023-11-18T16:18:11;5.50;;;4.80;;
359;SDS011;168;48.872;9.226;2023-11-18T16:20:39;6.10;;;5.00;;
359;SDS011;168;48.872;9.226;2023-11-18T16:23:06;5.93;;;4.77;;
359;SDS011;168;48.872;9.226;2023-11-18T16:25:34;4.80;;;4.30;;
359;SDS011;168;48.872;9.226;2023-11-18T16:28:03;5.90;;;4.43;;
359;SDS011;168;48.872;9.226;2023-11-18T16:30:32;5.23;;;4.10;;
359;SDS011;168;48.872;9.226;2023-11-18T16:33:00;4.83;;;4.13;;
359;SDS011;168;48.872;9.226;2023-11-18T16:35:30;5.13;;;3.97;;
359;SDS011;168;48.872;9.226;2023-11-18T16:37:57;4.93;;;4.43;;
359;SDS011;168;48.872;9.226;2023-11-18T16:40:25;4.13;;;3.73;;
359;SDS011;168;48.872;9.226;2023-11-18T16:42:53;5.97;;;4.50;;
359;SDS011;168;48.872;9.226;2023-11-18T16:45:20;5.13;;;3.83;;
359;SDS011;168;48.872;9.226;2023-11-18T16:47:49;4.50;;;3.87;;
359;SDS011;168;48.872;9.226;2023-11-18T16:50:18;4.97;;;4.47;;
359;SDS011;168;48.872;9.226;2023-11-18T16:52:47;4.93;;;3.90;;
359;SDS011;168;48.872;9.226;2023-11-18T16:55:15;6.33;;;3.60;;